createdAt,value
2022-08-21T00:00:21.984Z,7.15
2022-08-21T00:02:55.727Z,7.10
2022-08-21T00:05:23.840Z,7.72
2022-08-21T00:07:50.629Z,7.78
2022-08-21T00:10:18.273Z,7.63
2022-08-21T00:12:46.348Z,7.00
2022-08-21T00:15:19.456Z,6.85
2022-08-21T00:17:46.705Z,6.90
2022-08-21T00:20:15.388Z,6.50
2022-08-21T00:22:42.327Z,7.00
2022-08-21T00:25:09.867Z,7.30
2022-08-21T00:27:36.864Z,7.53
2022-08-21T00:30:06.777Z,7.15
2022-08-21T00:32:33.616Z,7.45
2022-08-21T00:35:00.215Z,7.60
2022-08-21T00:37:26.688Z,7.15
2022-08-21T00:39:54.280Z,7.50
2022-08-21T00:42:21.296Z,7.32
2022-08-21T00:44:49.923Z,7.45
2022-08-21T00:47:17.528Z,7.80
2022-08-21T00:49:44.108Z,8.00
2022-08-21T00:52:16.542Z,7.72
2022-08-21T00:54:46.405Z,7.15
2022-08-21T00:57:18.080Z,7.65
2022-08-21T00:59:48.824Z,7.07
2022-08-21T01:02:15.371Z,6.57
2022-08-21T01:04:41.993Z,6.88
2022-08-21T01:07:09.103Z,6.68
2022-08-21T01:09:36.865Z,6.63
2022-08-21T01:12:04.454Z,7.03
2022-08-21T01:14:31.338Z,6.38
2022-08-21T01:17:00.151Z,6.65
2022-08-21T01:19:27.082Z,6.00
2022-08-21T01:21:54.671Z,6.53
2022-08-21T01:24:21.522Z,7.83
2022-08-21T01:26:50.331Z,7.30
2022-08-21T01:29:37.112Z,7.45
2022-08-21T01:32:12.080Z,7.45
2022-08-21T01:34:42.137Z,6.95
2022-08-21T01:37:09.214Z,7.57
2022-08-21T01:39:36.865Z,7.05
2022-08-21T01:42:03.790Z,7.38
2022-08-21T01:44:30.233Z,7.15
2022-08-21T01:47:00.344Z,6.88
2022-08-21T01:49:27.016Z,6.77
2022-08-21T01:51:53.638Z,6.60
2022-08-21T01:54:20.462Z,6.50
2022-08-21T01:56:49.523Z,6.32
2022-08-21T01:59:15.981Z,6.15
2022-08-21T02:01:42.887Z,7.90
2022-08-21T02:04:10.623Z,10.82
2022-08-21T02:06:38.177Z,14.02
2022-08-21T02:09:07.044Z,14.48
2022-08-21T02:11:33.984Z,15.32
2022-08-21T02:14:00.399Z,17.73
2022-08-21T02:16:27.064Z,15.45
2022-08-21T02:18:53.632Z,14.65
2022-08-21T02:21:20.228Z,18.73
2022-08-21T02:23:46.709Z,22.38
2022-08-21T02:26:13.542Z,25.77
2022-08-21T02:28:41.382Z,28.25
2022-08-21T02:31:08.398Z,28.45
2022-08-21T02:33:35.198Z,29.83
2022-08-21T02:36:03.392Z,29.60
2022-08-21T02:38:34.198Z,25.30
2022-08-21T02:41:01.138Z,21.52
2022-08-21T02:43:28.984Z,21.15
2022-08-21T02:45:57.555Z,18.52
2022-08-21T02:48:27.820Z,15.32
2022-08-21T02:51:09.778Z,13.83
2022-08-21T02:53:37.189Z,12.15
2022-08-21T02:56:06.874Z,8.98
2022-08-21T02:58:37.923Z,8.15
2022-08-21T03:01:04.835Z,5.97
2022-08-21T03:03:31.564Z,6.33
2022-08-21T03:05:58.002Z,6.13
2022-08-21T03:08:27.414Z,5.95
2022-08-21T03:10:55.656Z,6.05
2022-08-21T03:13:22.588Z,5.75
2022-08-21T03:15:50.402Z,5.60
2022-08-21T03:18:17.257Z,5.63
2022-08-21T03:20:46.228Z,6.32
2022-08-21T03:23:14.240Z,6.75
2022-08-21T03:25:43.439Z,6.63
2022-08-21T03:28:14.038Z,6.07
2022-08-21T03:30:46.971Z,6.20
2022-08-21T03:33:15.117Z,5.90
2022-08-21T03:35:49.835Z,6.25
2022-08-21T03:38:16.262Z,6.88
2022-08-21T03:40:44.117Z,6.60
2022-08-21T03:43:10.860Z,6.70
2022-08-21T03:45:39.022Z,6.70
2022-08-21T03:48:06.239Z,7.50
2022-08-21T03:50:40.808Z,7.82
2022-08-21T03:53:09.070Z,7.50
2022-08-21T03:55:47.786Z,7.10
2022-08-21T03:58:17.385Z,6.90
2022-08-21T04:00:46.831Z,7.00
2022-08-21T04:03:13.648Z,7.30
2022-08-21T04:05:40.174Z,7.33
2022-08-21T04:08:07.639Z,7.47
2022-08-21T04:10:36.439Z,7.15
2022-08-21T04:13:03.471Z,7.90
2022-08-21T04:15:30.125Z,7.68
2022-08-21T04:17:56.576Z,8.10
2022-08-21T04:20:24.014Z,8.05
2022-08-21T04:22:51.662Z,8.60
2022-08-21T04:25:20.888Z,8.38
2022-08-21T04:27:47.662Z,8.10
2022-08-21T04:30:16.064Z,7.30
2022-08-21T04:32:48.223Z,8.38
2022-08-21T04:35:18.068Z,8.38
2022-08-21T04:37:44.476Z,7.80
2022-08-21T04:40:14.380Z,7.65
2022-08-21T04:42:50.291Z,7.93
2022-08-21T04:45:32.757Z,7.85
2022-08-21T04:48:01.953Z,7.70
2022-08-21T04:50:44.939Z,7.90
2022-08-21T04:53:16.810Z,8.07
2022-08-21T04:55:44.371Z,8.10
2022-08-21T04:58:13.988Z,8.00
2022-08-21T05:00:41.635Z,7.80
2022-08-21T05:03:09.898Z,7.72
2022-08-21T05:05:36.741Z,7.97
2022-08-21T05:08:04.191Z,8.10
2022-08-21T05:10:32.367Z,8.15
2022-08-21T05:12:59.776Z,7.57
2022-08-21T05:15:26.367Z,8.20
2022-08-21T05:17:59.360Z,8.27
2022-08-21T05:20:29.003Z,8.60
2022-08-21T05:22:55.543Z,8.60
2022-08-21T05:25:23.912Z,8.20
2022-08-21T05:27:52.145Z,8.80
2022-08-21T05:30:20.051Z,8.68
2022-08-21T05:32:47.340Z,8.73
2022-08-21T05:35:14.566Z,8.48
2022-08-21T05:37:41.302Z,9.00
2022-08-21T05:40:21.415Z,8.65
2022-08-21T05:42:54.685Z,8.32
2022-08-21T05:45:26.993Z,8.30
2022-08-21T05:48:11.592Z,8.02
2022-08-21T05:50:38.982Z,8.27
2022-08-21T05:53:07.765Z,7.85
2022-08-21T05:55:34.700Z,8.13
2022-08-21T05:58:01.562Z,7.60
2022-08-21T06:00:27.995Z,7.72
2022-08-21T06:02:54.443Z,7.53
2022-08-21T06:05:25.221Z,7.43
2022-08-21T06:08:03.803Z,7.03
2022-08-21T06:10:30.202Z,6.63
2022-08-21T06:12:56.736Z,7.15
2022-08-21T06:15:23.207Z,6.80
2022-08-21T06:17:49.607Z,7.00
2022-08-21T06:20:16.114Z,6.80
2022-08-21T06:22:42.540Z,6.43
2022-08-21T06:25:10.229Z,6.45
2022-08-21T06:27:36.763Z,6.50
2022-08-21T06:30:05.510Z,6.20
2022-08-21T06:32:31.987Z,5.88
2022-08-21T06:34:58.512Z,5.50
2022-08-21T06:37:24.992Z,5.35
2022-08-21T06:39:51.573Z,5.38
2022-08-21T06:42:19.132Z,5.40
2022-08-21T06:44:46.603Z,5.90
2022-08-21T06:47:13.187Z,5.30
2022-08-21T06:49:39.734Z,4.97
2022-08-21T06:52:11.149Z,5.20
2022-08-21T06:54:38.307Z,5.30
2022-08-21T06:57:05.049Z,5.18
2022-08-21T06:59:32.754Z,4.83
2022-08-21T07:02:00.757Z,4.82
2022-08-21T07:04:27.491Z,4.50
2022-08-21T07:06:53.959Z,5.28
2022-08-21T07:09:24.387Z,4.60
2022-08-21T07:11:54.222Z,4.50
2022-08-21T07:14:20.756Z,4.25
2022-08-21T07:16:48.132Z,4.22
2022-08-21T07:19:14.581Z,4.20
2022-08-21T07:21:41.184Z,4.10
2022-08-21T07:24:07.828Z,3.80
2022-08-21T07:26:34.210Z,4.53
2022-08-21T07:29:00.653Z,3.88
2022-08-21T07:31:27.809Z,3.92
2022-08-21T07:33:54.968Z,4.28
2022-08-21T07:36:21.573Z,3.20
2022-08-21T07:38:48.119Z,3.40
2022-08-21T07:41:26.258Z,3.50
2022-08-21T07:43:53.116Z,3.35
2022-08-21T07:46:20.567Z,2.90
2022-08-21T07:48:47.449Z,3.17
2022-08-21T07:51:17.476Z,3.20
2022-08-21T07:53:50.056Z,3.35
2022-08-21T07:56:17.255Z,2.75
2022-08-21T07:58:43.648Z,3.10
2022-08-21T08:01:10.107Z,2.60
2022-08-21T08:03:36.568Z,2.42
2022-08-21T08:06:05.606Z,2.25
2022-08-21T08:08:32.806Z,2.45
2022-08-21T08:11:00.858Z,2.25
2022-08-21T08:13:27.346Z,2.60
2022-08-21T08:15:53.814Z,2.60
2022-08-21T08:18:20.304Z,2.20
2022-08-21T08:20:46.697Z,2.20
2022-08-21T08:23:14.528Z,2.00
2022-08-21T08:25:41.068Z,1.90
2022-08-21T08:28:16.595Z,2.20
2022-08-21T08:30:45.578Z,2.00
2022-08-21T08:33:11.997Z,2.20
2022-08-21T08:35:39.233Z,2.15
2022-08-21T08:38:06.025Z,2.57
2022-08-21T08:40:56.154Z,2.10
2022-08-21T08:43:22.732Z,2.72
2022-08-21T08:45:52.116Z,2.20
2022-08-21T08:48:37.425Z,2.50
2022-08-21T08:51:07.439Z,2.13
2022-08-21T08:53:43.305Z,2.40
2022-08-21T08:56:10.704Z,2.22
2022-08-21T08:58:43.815Z,2.10
2022-08-21T09:01:18.294Z,2.25
2022-08-21T09:03:50.579Z,2.13
2022-08-21T09:06:54.483Z,2.28
2022-08-21T09:09:39.280Z,2.05
2022-08-21T09:12:20.611Z,2.10
2022-08-21T09:15:03.338Z,2.00
2022-08-21T09:17:40.403Z,2.63
2022-08-21T09:20:29.850Z,1.90
2022-08-21T09:22:59.480Z,2.10
2022-08-21T09:25:31.074Z,2.08
2022-08-21T09:27:57.463Z,2.00
2022-08-21T09:30:33.272Z,1.80
2022-08-21T09:33:00.535Z,2.25
2022-08-21T09:35:27.376Z,2.15
2022-08-21T09:37:59.009Z,2.20
2022-08-21T09:40:40.667Z,2.20
2022-08-21T09:43:12.722Z,2.13
2022-08-21T09:45:42.368Z,2.00
2022-08-21T09:48:26.219Z,2.33
2022-08-21T09:50:55.024Z,2.30
2022-08-21T09:53:26.738Z,1.95
2022-08-21T09:56:11.810Z,2.13
2022-08-21T09:58:42.413Z,2.08
2022-08-21T10:01:15.966Z,1.95
2022-08-21T10:03:42.698Z,2.03
2022-08-21T10:06:11.695Z,2.20
2022-08-21T10:08:40.309Z,2.03
2022-08-21T10:11:13.510Z,2.30
2022-08-21T10:14:02.722Z,2.40
2022-08-21T10:16:40.445Z,2.33
2022-08-21T10:19:13.582Z,2.30
2022-08-21T10:22:00.251Z,2.40
2022-08-21T10:24:45.296Z,1.90
2022-08-21T10:27:19.804Z,2.38
2022-08-21T10:29:50.265Z,2.22
2022-08-21T10:32:40.988Z,2.10
2022-08-21T10:35:15.069Z,1.93
2022-08-21T10:38:09.096Z,2.38
2022-08-21T10:41:02.331Z,2.25
2022-08-21T10:43:45.713Z,2.00
2022-08-21T10:46:24.267Z,1.90
2022-08-21T10:49:14.865Z,1.70
2022-08-21T10:51:55.290Z,1.90
2022-08-21T10:54:48.479Z,1.67
2022-08-21T10:57:31.868Z,1.80
2022-08-21T11:00:07.662Z,2.10
2022-08-21T11:02:41.274Z,1.80
2022-08-21T11:05:25.388Z,1.70
2022-08-21T11:08:02.515Z,1.70
2022-08-21T11:10:40.779Z,1.83
2022-08-21T11:13:45.590Z,2.08
2022-08-21T11:16:19.684Z,1.90
2022-08-21T11:19:08.197Z,1.83
2022-08-21T11:21:49.645Z,1.73
2022-08-21T11:24:36.431Z,1.70
2022-08-21T11:27:08.663Z,1.77
2022-08-21T11:29:38.890Z,1.80
2022-08-21T11:32:25.692Z,1.60
2022-08-21T11:35:10.648Z,1.50
2022-08-21T11:37:59.186Z,1.50
2022-08-21T11:40:50.494Z,1.60
2022-08-21T11:43:35.729Z,1.30
2022-08-21T11:46:25.080Z,1.35
2022-08-21T11:49:06.739Z,1.40
2022-08-21T11:51:46.755Z,1.23
2022-08-21T11:54:44.371Z,1.70
2022-08-21T11:57:29.019Z,1.60
2022-08-21T12:00:08.993Z,1.25
2022-08-21T12:02:40.563Z,1.50
2022-08-21T12:05:23.047Z,1.60
2022-08-21T12:08:01.088Z,1.30
2022-08-21T12:10:37.580Z,1.20
2022-08-21T12:13:40.563Z,1.33
2022-08-21T12:16:12.119Z,1.40
2022-08-21T12:18:41.480Z,1.30
2022-08-21T12:21:23.192Z,1.42
2022-08-21T12:24:02.269Z,1.40
2022-08-21T12:26:33.441Z,1.38
2022-08-21T12:29:13.505Z,1.50
2022-08-21T12:31:56.787Z,1.30
2022-08-21T12:34:35.726Z,1.30
2022-08-21T12:37:16.273Z,1.33
2022-08-21T12:39:47.491Z,1.30
2022-08-21T12:42:21.756Z,1.40
2022-08-21T12:45:00.504Z,1.90
2022-08-21T12:47:45.416Z,1.77
2022-08-21T12:50:20.380Z,1.57
2022-08-21T12:53:00.311Z,1.90
2022-08-21T12:55:30.710Z,2.13
2022-08-21T12:57:57.578Z,1.83
2022-08-21T13:00:29.614Z,2.00
2022-08-21T13:02:57.746Z,1.60
2022-08-21T13:05:36.177Z,1.50
2022-08-21T13:08:08.878Z,1.55
2022-08-21T13:10:37.004Z,1.48
2022-08-21T13:13:13.341Z,2.20
2022-08-21T13:15:42.249Z,1.80
2022-08-21T13:18:29.016Z,1.88
2022-08-21T13:21:12.664Z,1.83
2022-08-21T13:23:39.552Z,1.80
2022-08-21T13:26:19.123Z,1.75
2022-08-21T13:28:48.408Z,1.70
2022-08-21T13:31:22.934Z,1.70
2022-08-21T13:33:51.350Z,1.50
2022-08-21T13:36:25.146Z,2.40
2022-08-21T13:38:54.319Z,1.90
2022-08-21T13:41:28.484Z,1.63
2022-08-21T13:44:04.900Z,1.83
2022-08-21T13:46:37.886Z,2.05
2022-08-21T13:49:07.161Z,2.00
2022-08-21T13:51:34.778Z,2.10
2022-08-21T13:54:01.653Z,2.10
2022-08-21T13:56:41.800Z,2.10
2022-08-21T13:59:08.829Z,2.17
2022-08-21T14:01:50.342Z,1.83
2022-08-21T14:04:21.234Z,2.58
2022-08-21T14:06:47.721Z,2.40
2022-08-21T14:09:27.739Z,2.60
2022-08-21T14:11:55.627Z,2.20
2022-08-21T14:14:30.872Z,2.80
2022-08-21T14:17:25.289Z,2.20
2022-08-21T14:19:52.246Z,2.17
2022-08-21T14:22:44.292Z,2.53
2022-08-21T14:25:19.992Z,2.53
2022-08-21T14:27:57.483Z,2.05
2022-08-21T14:30:35.054Z,2.05
2022-08-21T14:33:03.317Z,2.23
2022-08-21T14:35:30.094Z,1.70
2022-08-21T14:37:58.706Z,2.40
2022-08-21T14:40:26.038Z,1.73
2022-08-21T14:42:52.599Z,1.90
2022-08-21T14:45:30.553Z,1.67
2022-08-21T14:47:58.486Z,1.92
2022-08-21T14:50:27.923Z,1.88
2022-08-21T14:52:55.096Z,1.80
2022-08-21T14:55:21.730Z,1.85
2022-08-21T14:57:53.828Z,1.50
2022-08-21T15:00:24.093Z,1.83
2022-08-21T15:02:58.459Z,2.08
2022-08-21T15:05:33.076Z,1.77
2022-08-21T15:08:00.305Z,2.22
2022-08-21T15:10:26.795Z,1.93
2022-08-21T15:12:53.232Z,2.10
2022-08-21T15:15:19.870Z,2.30
2022-08-21T15:17:48.460Z,1.80
2022-08-21T15:20:15.309Z,2.10
2022-08-21T15:22:41.711Z,1.90
2022-08-21T15:25:14.721Z,1.90
2022-08-21T15:27:41.182Z,2.30
2022-08-21T15:30:08.627Z,2.08
2022-08-21T15:32:35.039Z,2.10
2022-08-21T15:35:02.420Z,1.70
2022-08-21T15:37:28.819Z,1.63
2022-08-21T15:39:55.494Z,1.75
2022-08-21T15:42:22.589Z,1.80
2022-08-21T15:44:49.311Z,1.80
2022-08-21T15:47:18.884Z,1.60
2022-08-21T15:49:46.337Z,1.40
2022-08-21T15:52:15.146Z,1.60
2022-08-21T15:54:42.175Z,1.73
2022-08-21T15:57:12.866Z,1.58
2022-08-21T15:59:42.762Z,1.43
2022-08-21T16:02:15.138Z,1.60
2022-08-21T16:04:42.016Z,1.50
2022-08-21T16:07:09.831Z,1.80
2022-08-21T16:09:36.711Z,1.90
2022-08-21T16:12:05.433Z,1.83
2022-08-21T16:14:34.048Z,1.70
2022-08-21T16:17:00.615Z,1.95
2022-08-21T16:19:29.563Z,2.00
2022-08-21T16:21:55.968Z,1.63
2022-08-21T16:24:22.390Z,1.63
2022-08-21T16:26:57.645Z,1.70
2022-08-21T16:29:28.297Z,1.70
2022-08-21T16:31:55.757Z,1.60
2022-08-21T16:34:22.188Z,1.52
2022-08-21T16:36:48.761Z,1.60
2022-08-21T16:39:15.201Z,1.50
2022-08-21T16:41:41.571Z,1.90
2022-08-21T16:44:08.620Z,1.63
2022-08-21T16:46:40.108Z,1.77
2022-08-21T16:49:07.830Z,1.57
2022-08-21T16:51:34.497Z,1.77
2022-08-21T16:54:01.175Z,1.58
2022-08-21T16:56:27.768Z,1.70
2022-08-21T16:58:55.475Z,2.20
2022-08-21T17:01:25.140Z,1.60
2022-08-21T17:03:53.290Z,1.75
2022-08-21T17:06:22.179Z,1.98
2022-08-21T17:08:52.396Z,1.90
2022-08-21T17:11:37.295Z,1.90
2022-08-21T17:14:19.649Z,2.00
2022-08-21T17:16:50.784Z,2.00
2022-08-21T17:19:18.339Z,1.60
2022-08-21T17:21:45.094Z,1.90
2022-08-21T17:24:15.353Z,1.58
2022-08-21T17:26:43.620Z,1.90
2022-08-21T17:29:12.420Z,1.70
2022-08-21T17:31:40.956Z,1.80
2022-08-21T17:34:07.881Z,1.83
2022-08-21T17:36:34.438Z,1.90
2022-08-21T17:39:01.089Z,1.90
2022-08-21T17:41:27.782Z,1.88
2022-08-21T17:43:54.963Z,2.13
2022-08-21T17:46:28.058Z,2.00
2022-08-21T17:48:55.256Z,2.00
2022-08-21T17:51:22.506Z,1.90
2022-08-21T17:53:49.095Z,1.95
2022-08-21T17:56:18.370Z,1.73
2022-08-21T17:58:48.797Z,2.00
2022-08-21T18:01:16.164Z,2.22
2022-08-21T18:03:43.037Z,2.13
2022-08-21T18:06:12.320Z,1.83
2022-08-21T18:08:41.985Z,2.08
2022-08-21T18:11:09.123Z,2.40
2022-08-21T18:13:39.887Z,1.95
2022-08-21T18:16:06.974Z,2.17
2022-08-21T18:18:40.882Z,2.25
2022-08-21T18:21:07.932Z,1.90
2022-08-21T18:23:44.242Z,1.80
2022-08-21T18:26:16.128Z,1.95
2022-08-21T18:28:44.147Z,2.27
2022-08-21T18:31:11.854Z,1.98
2022-08-21T18:33:43.622Z,2.03
2022-08-21T18:36:27.046Z,1.85
2022-08-21T18:38:53.950Z,1.90
2022-08-21T18:41:20.904Z,1.67
2022-08-21T18:43:47.913Z,1.90
2022-08-21T18:46:14.397Z,2.03
2022-08-21T18:48:42.496Z,2.00
2022-08-21T18:51:11.216Z,1.85
2022-08-21T18:53:38.539Z,2.10
2022-08-21T18:56:06.923Z,1.95
2022-08-21T18:58:35.286Z,2.00
2022-08-21T19:01:01.840Z,1.90
2022-08-21T19:03:28.769Z,2.22
2022-08-21T19:05:55.248Z,2.00
2022-08-21T19:08:23.711Z,2.10
2022-08-21T19:10:54.650Z,2.00
2022-08-21T19:13:22.409Z,2.03
2022-08-21T19:15:52.727Z,2.28
2022-08-21T19:18:24.103Z,2.10
2022-08-21T19:20:55.470Z,1.80
2022-08-21T19:26:12.157Z,2.28
2022-08-21T19:28:44.714Z,2.20
2022-08-21T19:31:24.801Z,2.03
2022-08-21T19:34:16.539Z,1.90
2022-08-21T19:36:43.564Z,2.58
2022-08-21T19:39:12.224Z,2.85
2022-08-21T19:41:42.466Z,2.10
2022-08-21T19:44:13.254Z,2.07
2022-08-21T19:46:42.921Z,2.30
2022-08-21T19:49:14.400Z,2.38
2022-08-21T19:51:41.144Z,2.15
2022-08-21T19:54:30.167Z,2.30
2022-08-21T19:56:58.879Z,2.30
2022-08-21T19:59:31.033Z,2.28
2022-08-21T20:01:57.464Z,2.53
2022-08-21T20:04:23.862Z,2.50
2022-08-21T20:06:52.026Z,2.50
2022-08-21T20:09:19.662Z,2.40
2022-08-21T20:11:49.334Z,2.58
2022-08-21T20:14:19.564Z,2.40
2022-08-21T20:16:47.321Z,2.75
2022-08-21T20:19:13.919Z,2.50
2022-08-21T20:21:43.641Z,2.50
2022-08-21T20:24:14.670Z,2.50
2022-08-21T20:29:35.013Z,2.55
2022-08-21T20:32:07.749Z,2.83
2022-08-21T20:34:34.615Z,2.90
2022-08-21T20:37:01.337Z,2.63
2022-08-21T20:39:27.863Z,2.97
2022-08-21T20:41:55.346Z,2.80
2022-08-21T20:44:22.221Z,3.10
2022-08-21T20:46:53.863Z,3.20
2022-08-21T20:49:27.694Z,2.97
2022-08-21T20:51:55.583Z,2.80
2022-08-21T20:54:41.657Z,3.03
2022-08-21T20:57:34.268Z,2.92
2022-08-21T21:00:14.615Z,2.90
2022-08-21T21:03:04.303Z,2.85
2022-08-21T21:05:36.316Z,3.33
2022-08-21T21:08:12.081Z,3.22
2022-08-21T21:10:51.184Z,3.47
2022-08-21T21:13:29.907Z,3.20
2022-08-21T21:16:02.759Z,3.25
2022-08-21T21:18:43.846Z,3.42
2022-08-21T21:21:14.701Z,3.50
2022-08-21T21:23:54.925Z,3.10
2022-08-21T21:26:29.973Z,2.93
2022-08-21T21:29:10.619Z,2.80
2022-08-21T21:31:37.674Z,3.05
2022-08-21T21:34:04.607Z,3.00
2022-08-21T21:36:56.407Z,3.72
2022-08-21T21:39:41.358Z,3.03
2022-08-21T21:42:32.943Z,3.30
2022-08-21T21:45:09.283Z,3.28
2022-08-21T21:48:05.844Z,2.92
2022-08-21T21:50:42.980Z,3.53
2022-08-21T21:53:32.899Z,3.13
2022-08-21T21:56:11.548Z,3.25
2022-08-21T21:58:50.073Z,3.78
2022-08-21T22:01:35.722Z,3.20
2022-08-21T22:04:34.420Z,3.13
2022-08-21T22:07:28.871Z,3.20
2022-08-21T22:10:20.024Z,3.22
2022-08-21T22:13:13.317Z,3.10
2022-08-21T22:15:52.975Z,3.40
2022-08-21T22:18:26.375Z,3.35
2022-08-21T22:21:00.228Z,3.07
2022-08-21T22:23:31.852Z,3.45
2022-08-21T22:26:09.783Z,3.47
2022-08-21T22:28:41.321Z,3.65
2022-08-21T22:31:11.286Z,3.60
2022-08-21T22:33:37.855Z,3.40
2022-08-21T22:36:19.858Z,3.75
2022-08-21T22:38:47.538Z,3.85
2022-08-21T22:41:28.813Z,3.63
2022-08-21T22:44:01.722Z,3.78
2022-08-21T22:46:44.818Z,3.73
2022-08-21T22:49:29.477Z,3.80
2022-08-21T22:52:22.456Z,3.70
2022-08-21T22:54:51.690Z,3.85
2022-08-21T22:57:35.094Z,3.90
2022-08-21T23:00:36.429Z,3.57
2022-08-21T23:03:03.703Z,3.67
2022-08-21T23:05:30.544Z,3.80
2022-08-21T23:08:13.394Z,3.95
2022-08-21T23:10:41.911Z,4.03
2022-08-21T23:13:13.054Z,3.70
2022-08-21T23:15:56.758Z,3.50
2022-08-21T23:19:05.691Z,3.78
2022-08-21T23:21:47.327Z,3.65
2022-08-21T23:24:31.339Z,3.92
2022-08-21T23:27:32.022Z,3.90
2022-08-21T23:30:18.524Z,4.30
2022-08-21T23:32:56.561Z,4.43
2022-08-21T23:35:51.835Z,4.50
2022-08-21T23:38:47.870Z,4.72
2022-08-21T23:41:34.615Z,4.47
2022-08-21T23:44:10.245Z,4.20
2022-08-21T23:47:01.752Z,4.13
2022-08-21T23:49:37.226Z,4.10
2022-08-21T23:52:25.735Z,4.05
2022-08-21T23:55:06.441Z,3.90
2022-08-21T23:57:39.286Z,4.15
